Time;durP1;ratioP1;P1;durP2;ratioP2;P2;SDS_P1;SDS_P2;PMS_P1;PMS_P2;Temp;Humidity;BMP_temperature;BMP_pressure;BME280_temperature;BME280_humidity;BME280_pressure;Samples;Min_cycle;Max_cycle;Signal;HPM_P1;HPM_P2
2022/11/10 00:02:01;;;;;;;5.75;1.90;;;12.10;99.90;;;10.87;93.77;100711.88;5054380;28;20126;-83
2022/11/10 00:04:46;;;;;;;4.75;2.10;;;12.20;99.90;;;10.88;93.46;100717.13;5061254;28;20098;-82
2022/11/10 00:07:30;;;;;;;8.85;2.08;;;12.20;99.90;;;10.86;93.75;100716.50;5058894;28;20147;-82
2022/11/10 00:10:15;;;;;;;11.88;2.40;;;12.10;99.90;;;10.78;94.48;100709.41;5063495;28;20179;-84
2022/11/10 00:13:03;;;;;;;6.75;2.40;;;12.10;99.90;;;10.67;95.38;100712.81;5061401;28;20047;-84
2022/11/10 00:18:50;;;;;;;8.23;2.35;;;11.80;99.90;;;10.31;98.39;100720.44;5061642;28;20051;-86
2022/11/10 00:21:36;;;;;;;8.43;2.20;;;11.60;99.90;;;10.14;100.00;100725.53;5057689;28;20047;-85
2022/11/10 00:24:21;;;;;;;9.93;2.45;;;11.50;99.90;;;10.05;100.00;100726.78;5061930;28;20047;-85
2022/11/10 00:27:05;;;;;;;7.93;2.47;;;11.40;99.90;;;10.06;100.00;100742.06;5060231;28;20127;-85
2022/11/10 00:29:50;;;;;;;8.40;2.30;;;11.40;99.90;;;10.00;100.00;100753.81;5063198;28;20110;-82
2022/11/10 00:32:34;;;;;;;8.02;2.53;;;11.30;99.90;;;9.92;100.00;100758.44;5055803;28;20177;-83
2022/11/10 00:35:19;;;;;;;8.25;2.67;;;11.30;99.90;;;9.95;100.00;100745.44;5060834;28;20116;-82
2022/11/10 00:38:03;;;;;;;9.95;2.47;;;11.30;99.90;;;9.94;100.00;100758.22;5058724;28;20412;-85
2022/11/10 00:40:48;;;;;;;10.75;2.90;;;11.20;99.90;;;9.84;100.00;100747.78;5058757;28;20043;-86
2022/11/10 00:43:33;;;;;;;7.80;2.85;;;11.20;99.90;;;9.87;100.00;100768.28;5057539;28;20081;-86
2022/11/10 00:46:17;;;;;;;11.27;2.72;;;11.20;99.90;;;9.88;100.00;100762.66;5059206;28;20055;-84
2022/11/10 00:49:02;;;;;;;12.18;2.78;;;11.20;99.90;;;9.76;100.00;100745.22;5064001;28;20511;-84
2022/11/10 00:51:46;;;;;;;10.70;2.85;;;11.20;99.90;;;9.88;100.00;100769.97;5063219;28;20114;-86
2022/11/10 00:54:31;;;;;;;7.97;2.67;;;11.20;99.90;;;9.85;100.00;100771.25;5059420;28;20050;-84
2022/11/10 00:57:15;;;;;;;11.50;2.70;;;11.20;99.90;;;9.86;100.00;100777.50;5058393;28;20051;-84
2022/11/10 01:00:00;;;;;;;10.18;3.35;;;11.20;99.90;;;9.84;100.00;100774.16;5061786;28;20134;-84
2022/11/10 01:02:45;;;;;;;7.72;2.33;;;11.20;99.90;;;9.75;100.00;100771.66;5056483;28;20252;-85
2022/11/10 01:05:30;;;;;;;7.30;2.25;;;11.10;99.90;;;9.67;100.00;100779.19;5059405;28;20520;-84
2022/11/10 01:08:14;;;;;;;11.15;2.90;;;11.00;99.90;;;9.55;100.00;100777.09;5060549;28;20056;-84
2022/11/10 01:11:11;;;;;;;8.30;2.72;;;10.90;99.90;;;9.55;100.00;100787.97;5059749;28;20106;-83
2022/11/10 01:13:57;;;;;;;11.20;3.13;;;10.90;99.90;;;9.45;100.00;100788.38;5056593;28;20047;-83
2022/11/10 01:16:41;;;;;;;7.85;2.80;;;10.80;99.90;;;9.51;100.00;100792.13;5064063;28;20300;-85
2022/11/10 01:19:26;;;;;;;11.05;3.70;;;10.80;99.90;;;9.53;100.00;100794.66;5063767;28;20132;-82
2022/11/10 01:22:10;;;;;;;10.10;3.10;;;10.80;99.90;;;9.65;100.00;100803.91;5061874;28;20048;-85
2022/11/10 01:24:55;;;;;;;9.07;2.97;;;10.90;99.90;;;9.66;100.00;100796.56;5060283;28;20044;-85
2022/11/10 01:27:39;;;;;;;9.52;3.42;;;11.00;99.90;;;9.73;100.00;100791.97;5060473;28;20071;-86
2022/11/10 01:30:24;;;;;;;7.78;3.38;;;11.00;99.90;;;9.64;100.00;100800.34;5061883;28;20051;-85
2022/11/10 01:33:09;;;;;;;9.70;3.20;;;11.00;99.90;;;9.54;100.00;100805.34;5063197;28;20063;-85
2022/11/10 01:35:54;;;;;;;11.95;3.38;;;10.90;99.90;;;9.49;100.00;100805.13;5065210;28;20101;-86
2022/11/10 01:38:41;;;;;;;8.20;3.30;;;10.80;99.90;;;9.47;100.00;100808.06;5060836;28;20063;-87
2022/11/10 01:41:25;;;;;;;6.75;3.42;;;10.80;99.90;;;9.35;100.00;100810.53;5062883;28;20417;-84
2022/11/10 01:44:19;;;;;;;12.45;3.55;;;10.70;99.90;;;9.25;100.00;100810.06;5064818;28;20043;-83
2022/11/10 01:47:03;;;;;;;13.07;3.65;;;10.60;99.90;;;9.20;100.00;100813.44;5062238;28;20043;-84
2022/11/10 01:49:48;;;;;;;11.90;3.47;;;10.50;99.90;;;9.21;100.00;100826.00;5061635;28;20094;-86
2022/11/10 01:52:33;;;;;;;10.18;3.60;;;10.50;99.90;;;9.12;100.00;100819.03;5064063;28;20092;-84
2022/11/10 01:55:17;;;;;;;9.05;3.25;;;10.40;99.90;;;9.00;100.00;100812.50;5063344;28;20141;-87
2022/11/10 01:58:03;;;;;;;10.85;4.22;;;10.30;99.90;;;8.89;100.00;100822.94;5063748;28;20051;-82
2022/11/10 02:00:47;;;;;;;10.27;3.65;;;10.20;99.90;;;8.74;100.00;100814.03;5067614;28;20044;-83
2022/11/10 02:03:47;;;;;;;9.93;4.00;;;10.10;99.90;;;8.65;100.00;100826.13;5067463;28;20350;-84
2022/11/10 02:06:38;;;;;;;10.30;4.03;;;10.00;99.90;;;8.54;100.00;100824.81;5066611;28;20071;-82
2022/11/10 02:09:22;;;;;;;10.40;4.47;;;9.80;99.90;;;8.45;100.00;100816.75;5064764;28;20047;-85
2022/11/10 02:12:07;;;;;;;11.63;5.03;;;9.80;99.90;;;8.54;100.00;100835.69;5069231;28;20118;-84
2022/11/10 02:14:52;;;;;;;8.57;4.20;;;9.80;99.90;;;8.52;100.00;100835.88;5063186;28;20680;-86
2022/11/10 02:17:36;;;;;;;12.63;4.85;;;9.80;99.90;;;8.50;100.00;100837.94;5069431;28;20110;-83
2022/11/10 02:20:21;;;;;;;13.23;4.70;;;9.80;99.90;;;8.49;100.00;100844.41;5063097;28;20455;-88
2022/11/10 02:23:28;;;;;;;12.65;4.70;;;9.80;99.90;;;8.44;100.00;100844.97;5060836;28;20183;-85
2022/11/10 02:26:16;;;;;;;11.63;4.43;;;9.80;99.90;;;8.45;100.00;100849.38;5064569;28;20408;-86
2022/11/10 02:29:01;;;;;;;8.93;4.53;;;9.80;99.90;;;8.47;100.00;100846.47;5065420;28;20083;-84
2022/11/10 02:31:46;;;;;;;14.18;5.47;;;9.80;99.90;;;8.41;100.00;100853.53;5071032;28;20534;-84
2022/11/10 02:34:30;;;;;;;12.32;5.30;;;9.80;99.90;;;8.42;100.00;100860.66;5062476;28;20491;-83
2022/11/10 02:37:16;;;;;;;13.63;4.80;;;9.70;99.90;;;8.33;100.00;100857.22;5068655;28;20114;-84
2022/11/10 02:40:00;;;;;;;10.30;4.80;;;9.70;99.90;;;8.25;100.00;100851.13;5069421;28;20132;-85
2022/11/10 02:42:45;;;;;;;12.82;5.05;;;9.60;99.90;;;8.21;100.00;100856.91;5079572;28;20044;-86
2022/11/10 02:45:29;;;;;;;13.85;5.25;;;9.60;99.90;;;8.12;100.00;100863.53;5077513;28;20147;-86
2022/11/10 02:48:15;;;;;;;13.35;5.47;;;9.50;99.90;;;8.05;100.00;100858.03;5068351;28;20047;-86
2022/11/10 02:50:59;;;;;;;11.18;5.43;;;9.40;99.90;;;7.99;100.00;100864.25;5069031;28;20074;-84
2022/11/10 02:53:44;;;;;;;13.32;6.32;;;9.30;99.90;;;7.96;100.00;100867.38;5067113;28;20108;-85
2022/11/10 02:56:28;;;;;;;14.70;5.90;;;9.30;99.90;;;8.04;100.00;100871.84;5069006;28;20047;-86
2022/11/10 02:59:13;;;;;;;15.05;6.00;;;9.30;99.90;;;8.03;100.00;100870.97;5064120;28;20465;-84
2022/11/10 03:01:57;;;;;;;15.65;5.47;;;9.40;99.90;;;8.06;100.00;100869.75;5063814;28;20044;-83
2022/11/10 03:04:42;;;;;;;10.85;5.82;;;9.40;99.90;;;8.07;100.00;100880.41;5065921;28;20039;-86
2022/11/10 03:07:26;;;;;;;11.57;6.18;;;9.40;99.90;;;8.06;100.00;100884.19;5064362;28;20044;-85
2022/11/10 03:10:11;;;;;;;14.55;6.78;;;9.40;99.90;;;8.05;100.00;100871.63;5069454;28;20047;-86
2022/11/10 03:12:59;;;;;;;10.20;5.90;;;9.40;99.90;;;8.05;100.00;100878.97;5065367;28;21103;-84
2022/11/10 03:15:46;;;;;;;16.58;6.35;;;9.40;99.90;;;8.07;100.00;100876.88;5067973;28;20119;-84
2022/11/10 03:18:31;;;;;;;14.35;6.72;;;9.40;99.90;;;8.02;100.00;100879.34;5068705;28;20102;-85
2022/11/10 03:21:15;;;;;;;13.45;6.50;;;9.40;99.90;;;7.95;100.00;100882.00;5061960;28;20400;-82
2022/11/10 03:24:00;;;;;;;11.93;6.32;;;9.30;99.90;;;7.94;100.00;100896.59;5068930;28;20404;-84
2022/11/10 03:26:44;;;;;;;18.38;7.15;;;9.30;99.90;;;7.83;100.00;100880.84;5069963;28;20126;-85
2022/11/10 03:29:28;;;;;;;16.17;7.13;;;9.30;99.90;;;7.99;100.00;100893.31;5068724;28;20125;-85
2022/11/10 03:32:13;;;;;;;17.00;7.32;;;9.30;99.90;;;8.02;100.00;100901.09;5069231;28;20074;-84
2022/11/10 03:34:58;;;;;;;17.60;7.15;;;9.30;99.90;;;7.95;100.00;100902.88;5064501;28;20052;-83
2022/11/10 03:37:43;;;;;;;17.40;7.55;;;9.30;99.90;;;7.99;100.00;100912.34;5065140;28;20056;-86
2022/11/10 03:40:27;;;;;;;16.02;7.97;;;9.30;99.90;;;8.00;100.00;100912.13;5065241;28;20059;-85
2022/11/10 03:43:12;;;;;;;16.30;7.18;;;9.40;99.90;;;7.94;100.00;100912.91;5064481;28;20439;-87
2022/11/10 03:45:56;;;;;;;17.48;7.55;;;9.30;99.90;;;7.91;100.00;100911.41;5061100;28;20059;-83
2022/11/10 03:48:41;;;;;;;19.02;8.48;;;9.30;99.90;;;7.86;100.00;100910.31;5064726;28;20067;-83
2022/11/10 03:51:25;;;;;;;15.32;8.25;;;9.20;99.90;;;7.83;100.00;100922.41;5065588;28;20109;-85
2022/11/10 03:54:10;;;;;;;17.50;8.30;;;9.20;99.90;;;7.82;100.00;100917.16;5061792;28;20599;-81
2022/11/10 03:56:54;;;;;;;19.27;8.80;;;9.20;99.90;;;7.76;100.00;100925.03;5062466;28;20035;-85
2022/11/10 03:59:39;;;;;;;16.95;9.27;;;9.10;99.90;;;7.76;100.00;100932.34;5061018;28;20047;-87
2022/11/10 04:02:23;;;;;;;18.60;9.20;;;9.10;99.90;;;7.73;100.00;100922.72;5059168;28;20067;-89
2022/11/10 04:17:26;;;;;;;18.73;9.93;;;9.00;99.90;;;7.61;100.00;100952.22;5065517;28;20047;-89
2022/11/10 04:20:11;;;;;;;19.25;10.52;;;9.00;99.90;;;7.60;100.00;100957.88;5064661;28;20748;-86
2022/11/10 04:26:27;;;;;;;21.10;11.85;;;9.00;99.90;;;7.62;100.00;100953.09;5064444;28;20043;-85
2022/11/10 04:29:12;;;;;;;15.63;10.00;;;9.00;99.90;;;7.58;100.00;100954.50;5061312;28;20388;-87
2022/11/10 04:31:56;;;;;;;18.42;10.10;;;8.90;99.90;;;7.57;100.00;100958.25;5061917;28;20047;-86
2022/11/10 04:34:41;;;;;;;17.42;11.20;;;8.90;99.90;;;7.58;100.00;100963.47;5067199;28;20404;-85
2022/11/10 04:37:25;;;;;;;21.15;11.98;;;8.90;99.90;;;7.51;100.00;100967.97;5064640;28;20051;-84
2022/11/10 04:40:10;;;;;;;25.48;12.60;;;8.90;99.90;;;7.50;100.00;100963.59;5063990;28;20047;-85
2022/11/10 04:42:54;;;;;;;21.05;12.30;;;8.90;99.90;;;7.51;100.00;100976.13;5066027;28;20040;-86
2022/11/10 04:45:39;;;;;;;23.65;12.45;;;8.90;99.90;;;7.50;100.00;100977.16;5066365;28;20059;-84
2022/11/10 04:48:26;;;;;;;22.85;13.00;;;8.80;99.90;;;7.50;100.00;100977.16;5063903;28;20048;-86
2022/11/10 04:51:11;;;;;;;23.80;13.38;;;8.90;99.90;;;7.44;100.00;100986.06;5061356;28;20047;-84
2022/11/10 04:53:55;;;;;;;26.00;12.27;;;8.80;99.90;;;7.45;100.00;100987.75;5064799;28;20132;-85
2022/11/10 04:56:39;;;;;;;20.60;12.88;;;8.80;99.90;;;7.47;100.00;100988.41;5067213;28;20110;-86
2022/11/10 04:59:24;;;;;;;23.05;12.52;;;8.80;99.90;;;7.46;100.00;100997.56;5065888;28;20051;-81
2022/11/10 05:02:08;;;;;;;20.88;12.07;;;8.80;99.90;;;7.44;100.00;100997.75;5066460;28;20039;-81
2022/11/10 05:04:53;;;;;;;24.10;12.40;;;8.80;99.90;;;7.46;100.00;101008.44;5070364;28;20043;-83
2022/11/10 05:07:38;;;;;;;23.60;12.65;;;8.80;99.90;;;7.46;100.00;101008.44;5064063;28;20097;-84
2022/11/10 05:10:23;;;;;;;21.63;12.63;;;8.80;99.90;;;7.52;100.00;101018.53;5067638;28;20139;-83
2022/11/10 05:13:07;;;;;;;19.98;13.25;;;8.80;99.90;;;7.49;100.00;101017.03;5070518;28;20043;-81
2022/11/10 05:15:52;;;;;;;24.13;11.77;;;8.90;99.90;;;7.46;100.00;101019.28;5069554;28;20102;-82
2022/11/10 05:18:37;;;;;;;23.52;13.60;;;8.90;99.90;;;7.53;100.00;101024.78;5067546;28;20546;-82
2022/11/10 05:21:22;;;;;;;25.13;13.98;;;8.90;99.90;;;7.42;100.00;101013.38;5069921;28;20287;-81
2022/11/10 05:24:06;;;;;;;24.02;13.25;;;8.80;99.90;;;7.48;100.00;101018.06;5066387;28;20416;-82
2022/11/10 05:26:51;;;;;;;28.70;14.55;;;8.90;99.90;;;7.48;100.00;101018.06;5069213;28;20503;-84
2022/11/10 05:29:35;;;;;;;20.48;12.63;;;8.80;99.90;;;7.54;100.00;101010.19;5069867;28;20062;-83
2022/11/10 05:32:20;;;;;;;24.95;13.40;;;8.90;99.90;;;7.54;100.00;101021.91;5069924;28;20063;-84
2022/11/10 05:35:05;;;;;;;22.38;12.75;;;8.90;99.90;;;7.53;100.00;101031.09;5066240;28;20059;-82
2022/11/10 05:37:50;;;;;;;22.40;13.18;;;8.90;99.90;;;7.61;100.00;101035.59;5069345;28;20105;-83
2022/11/10 05:40:34;;;;;;;27.50;13.98;;;8.90;99.90;;;7.67;100.00;101034.81;5069167;28;20044;-84
2022/11/10 05:43:19;;;;;;;26.17;13.98;;;9.00;99.90;;;7.74;100.00;101035.75;5068423;28;20036;-87
2022/11/10 05:46:04;;;;;;;23.30;13.38;;;9.10;99.90;;;7.82;100.00;101031.22;5062823;28;20403;-85
2022/11/10 05:48:49;;;;;;;23.77;13.55;;;9.20;99.90;;;7.84;100.00;101048.22;5070041;28;20129;-85
2022/11/10 05:51:34;;;;;;;28.88;13.95;;;9.20;99.90;;;7.91;100.00;101062.72;5070847;28;20122;-86
2022/11/10 05:54:18;;;;;;;28.77;13.63;;;9.30;99.90;;;7.92;100.00;101067.13;5066585;28;20550;-86
2022/11/10 05:57:02;;;;;;;28.27;13.77;;;9.30;99.90;;;7.95;100.00;101063.16;5063197;28;20184;-86
2022/11/10 05:59:47;;;;;;;28.08;13.40;;;9.30;99.90;;;7.96;100.00;101068.44;5062383;28;20048;-85
2022/11/10 06:02:32;;;;;;;23.42;12.98;;;9.40;99.90;;;8.06;100.00;101076.28;5059859;28;20052;-87
2022/11/10 06:05:16;;;;;;;24.15;13.20;;;9.40;99.90;;;8.02;100.00;101073.09;5064433;28;20048;-84
2022/11/10 06:08:03;;;;;;;20.70;12.45;;;9.40;99.90;;;8.03;100.00;101082.94;5060362;28;20051;-87
2022/11/10 06:10:48;;;;;;;22.15;12.85;;;9.40;99.90;;;7.96;100.00;101082.00;5062652;28;20421;-83
2022/11/10 06:13:32;;;;;;;19.92;12.23;;;9.40;99.90;;;7.99;100.00;101092.50;5061060;28;20118;-83
2022/11/10 06:16:17;;;;;;;29.42;13.57;;;9.40;99.90;;;7.94;100.00;101094.09;5060840;28;20147;-85
2022/11/10 06:19:01;;;;;;;22.63;12.60;;;9.40;99.90;;;8.05;100.00;101109.94;5066244;28;20463;-86
2022/11/10 06:21:46;;;;;;;22.95;13.40;;;9.40;99.90;;;8.04;100.00;101105.53;5068675;28;20033;-88
2022/11/10 06:24:30;;;;;;;29.25;13.38;;;9.40;99.90;;;8.10;100.00;101122.97;5070824;28;20408;-87
2022/11/10 06:27:15;;;;;;;22.67;12.85;;;9.40;99.90;;;8.12;100.00;101129.03;5067912;28;20371;-90
2022/11/10 06:30:00;;;;;;;22.70;13.18;;;9.50;99.90;;;8.14;100.00;101129.69;5069495;28;20264;-90
2022/11/10 06:32:45;;;;;;;25.08;12.90;;;9.50;99.90;;;8.15;100.00;101126.78;5065574;28;20046;-80
2022/11/10 06:35:29;;;;;;;24.50;12.70;;;9.50;99.90;;;8.16;100.00;101127.63;5062663;28;20189;-82
2022/11/10 06:38:14;;;;;;;22.27;13.25;;;9.50;99.90;;;8.15;100.00;101129.50;5064546;28;20182;-83
2022/11/10 06:40:58;;;;;;;22.40;11.90;;;9.50;99.90;;;8.15;100.00;101134.94;5064294;28;20090;-81
2022/11/10 06:43:43;;;;;;;25.83;12.50;;;9.50;99.90;;;8.12;100.00;101135.31;5064220;28;20753;-82
2022/11/10 06:46:28;;;;;;;19.98;12.45;;;9.50;99.90;;;8.12;100.00;101120.91;5066762;28;20044;-83
2022/11/10 06:49:12;;;;;;;25.08;12.85;;;9.50;99.90;;;8.18;100.00;101150.84;5061892;28;20048;-83
2022/11/10 06:51:57;;;;;;;25.23;12.68;;;9.50;99.90;;;8.20;100.00;101154.22;5066173;28;20128;-85
2022/11/10 06:54:41;;;;;;;21.33;11.77;;;9.60;99.90;;;8.30;100.00;101167.53;5062218;28;20060;-83
2022/11/10 06:57:26;;;;;;;25.58;12.65;;;9.60;99.90;;;8.34;100.00;101189.75;5067004;28;20047;-82
2022/11/10 07:00:11;;;;;;;22.10;12.13;;;9.60;99.90;;;8.32;100.00;101191.81;5062560;28;20056;-82
2022/11/10 07:03:06;;;;;;;23.23;11.88;;;9.70;99.90;;;8.37;100.00;101186.66;5066325;28;20404;-79
2022/11/10 07:05:50;;;;;;;23.23;12.45;;;9.70;99.90;;;8.34;100.00;101195.19;5057705;28;20472;-78
2022/11/10 07:08:35;;;;;;;24.92;12.05;;;9.70;99.90;;;8.35;100.00;101203.19;5059924;28;20059;-81
2022/11/10 07:11:19;;;;;;;24.00;12.23;;;9.70;99.90;;;8.39;100.00;101208.22;5059383;28;20043;-78
2022/11/10 07:14:04;;;;;;;27.58;12.70;;;9.70;99.90;;;8.35;100.00;101213.19;5057311;28;20104;-77
2022/11/10 07:16:49;;;;;;;22.83;12.20;;;9.70;99.90;;;8.41;100.00;101217.88;5055475;28;20051;-79
2022/11/10 07:19:33;;;;;;;30.38;12.82;;;9.80;99.90;;;8.48;100.00;101217.97;5061285;28;20059;-82
2022/11/10 07:22:18;;;;;;;22.40;11.15;;;9.80;99.90;;;8.61;100.00;101223.59;5059460;28;20083;-81
2022/11/10 07:25:03;;;;;;;19.77;11.88;;;9.90;99.90;;;8.67;100.00;101213.00;5060766;28;20071;-82
2022/11/10 07:27:56;;;;;;;26.60;12.65;;;10.00;99.90;;;8.75;100.00;101213.75;5066957;28;20059;-83
2022/11/10 07:30:41;;;;;;;20.98;11.82;;;10.10;99.90;;;8.90;100.00;101234.63;5067134;28;20109;-82
2022/11/10 07:33:25;;;;;;;24.75;12.13;;;10.20;99.90;;;8.95;100.00;101234.88;5063443;28;20128;-82
2022/11/10 07:36:10;;;;;;;19.75;10.82;;;10.30;99.90;;;9.10;100.00;101243.00;5062573;28;20051;-83
2022/11/10 07:38:54;;;;;;;21.13;10.55;;;10.40;99.90;;;9.25;100.00;101251.13;5063523;28;20079;-81
2022/11/10 07:41:39;;;;;;;22.05;10.57;;;10.60;99.90;;;9.35;100.00;101256.25;5063106;28;21614;-83
2022/11/10 07:44:24;;;;;;;21.05;10.80;;;10.70;99.90;;;9.39;100.00;101243.94;5054138;28;20436;-83
2022/11/10 07:47:08;;;;;;;17.95;10.10;;;10.80;99.90;;;9.44;100.00;101254.25;5062589;28;20129;-83
2022/11/10 07:49:53;;;;;;;19.30;9.52;;;10.80;99.90;;;9.52;100.00;101266.91;5065917;28;20166;-80
2022/11/10 07:52:37;;;;;;;20.17;9.88;;;10.90;99.90;;;9.57;100.00;101270.75;5057429;28;20147;-82
2022/11/10 07:55:22;;;;;;;17.80;9.23;;;10.90;99.90;;;9.63;100.00;101275.41;5057188;28;20055;-84
2022/11/10 07:58:08;;;;;;;18.98;9.68;;;11.00;99.90;;;9.64;100.00;101287.13;5057199;28;20059;-84
2022/11/10 08:00:52;;;;;;;23.45;10.68;;;11.00;99.90;;;9.64;100.00;101292.56;5053854;28;20233;-85
2022/11/10 08:03:37;;;;;;;20.33;10.23;;;11.00;99.90;;;9.71;100.00;101295.38;5051770;28;20550;-83
2022/11/10 08:06:21;;;;;;;18.27;10.13;;;11.00;99.90;;;9.74;100.00;101295.84;5054356;28;20069;-84
2022/11/10 08:09:06;;;;;;;20.98;10.23;;;11.10;99.90;;;9.89;100.00;101311.25;5051501;28;20064;-83
2022/11/10 08:11:51;;;;;;;23.70;10.52;;;11.20;99.90;;;10.01;100.00;101306.97;5053959;28;20045;-82
2022/11/10 08:14:36;;;;;;;22.70;8.90;;;11.30;99.90;;;10.16;100.00;101317.78;5054566;28;20086;-84
2022/11/10 08:17:20;;;;;;;21.65;9.63;;;11.50;99.90;;;10.24;100.00;101329.56;5052459;28;20071;-85
2022/11/10 08:20:06;;;;;;;17.73;9.02;;;11.60;99.90;;;10.35;100.00;101337.22;5057961;28;20105;-84
2022/11/10 08:22:58;;;;;;;19.25;8.52;;;11.70;99.90;;;10.41;100.00;101332.88;5053962;28;20051;-83
2022/11/10 08:25:43;;;;;;;13.45;8.05;;;11.90;99.90;;;10.65;100.00;101353.41;5059884;28;20419;-82
2022/11/10 08:28:28;;;;;;;24.13;8.45;;;12.00;99.90;;;10.74;100.00;101356.81;5054396;28;20097;-80
2022/11/10 08:31:12;;;;;;;18.25;8.07;;;12.10;99.90;;;10.88;100.00;101376.84;5063427;28;20110;-83
2022/11/10 08:33:56;;;;;;;13.85;7.68;;;12.30;99.90;;;10.94;100.00;101382.34;5063391;28;20048;-81
2022/11/10 08:36:41;;;;;;;15.65;7.22;;;12.30;99.90;;;11.18;100.00;101388.34;5057316;28;20059;-80
2022/11/10 08:39:25;;;;;;;17.02;6.60;;;12.50;99.90;;;11.47;100.00;101391.81;5057994;28;20553;-79
2022/11/10 08:42:09;;;;;;;16.95;6.70;;;12.80;99.90;;;11.89;99.14;101386.25;5065254;28;20067;-79
2022/11/10 08:45:03;;;;;;;14.73;5.95;;;13.20;99.90;;;12.20;95.23;101386.75;5062343;28;20569;-80
2022/11/10 08:48:09;;;;;;;18.33;6.20;;;13.50;99.90;;;12.30;93.56;101400.00;5069362;28;20380;-79
2022/11/10 08:50:54;;;;;;;15.27;6.45;;;13.70;99.90;;;12.09;92.97;101385.47;5082699;28;20088;-81
2022/11/10 08:53:38;;;;;;;14.32;6.45;;;13.60;99.90;;;11.72;96.31;101398.63;5070783;28;20044;-81
2022/11/10 08:56:23;;;;;;;15.13;6.13;;;13.20;99.90;;;11.39;97.72;101407.53;5063673;28;20431;-77
2022/11/10 08:59:08;;;;;;;16.58;6.43;;;12.90;99.90;;;11.27;100.00;101401.81;5064089;28;20162;-82
2022/11/10 09:01:52;;;;;;;16.23;6.32;;;12.70;99.90;;;11.22;100.00;101405.19;5063993;28;20087;-83
2022/11/10 09:04:36;;;;;;;10.32;6.13;;;12.60;99.90;;;11.21;100.00;101407.03;5055585;28;20051;-83
2022/11/10 09:07:21;;;;;;;14.50;7.15;;;12.60;99.90;;;11.26;100.00;101405.59;5055464;28;20048;-84
2022/11/10 09:10:06;;;;;;;18.75;7.13;;;12.60;99.90;;;11.15;100.00;101404.31;5062321;28;20047;-81
2022/11/10 09:12:51;;;;;;;17.42;6.68;;;12.60;99.90;;;11.29;99.95;101408.78;5064095;28;20062;-79
2022/11/10 09:15:35;;;;;;;16.45;6.80;;;12.60;99.90;;;11.41;99.15;101416.41;5056561;28;20043;-79
2022/11/10 09:18:19;;;;;;;15.60;6.28;;;12.70;99.90;;;11.55;96.89;101429.06;5056808;28;20460;-84
2022/11/10 09:21:10;;;;;;;13.15;6.70;;;12.90;99.90;;;11.71;95.68;101424.28;5059850;28;20044;-80
2022/11/10 09:23:54;;;;;;;16.98;6.45;;;12.90;99.90;;;11.73;93.69;101430.38;5059167;28;20063;-81
2022/11/10 09:26:39;;;;;;;13.98;5.82;;;13.10;99.90;;;11.83;92.68;101439.03;5063907;28;20063;-80
2022/11/10 09:29:24;;;;;;;11.45;5.20;;;13.40;99.90;;;11.97;88.67;101445.38;5061654;28;20476;-79
2022/11/10 09:32:09;;;;;;;17.33;5.47;;;13.70;99.90;;;12.23;87.12;101435.56;5062209;28;20050;-81
2022/11/10 09:34:53;;;;;;;11.32;5.00;;;14.20;99.90;;;12.32;85.94;101436.22;5051891;28;20299;-82
2022/11/10 09:37:39;;;;;;;13.43;4.85;;;14.20;99.90;;;12.47;84.85;101441.47;5062142;28;20464;-81
2022/11/10 09:40:54;;;;;;;11.13;5.03;;;14.00;99.90;;;12.97;82.81;101438.28;5065403;28;20055;-79
2022/11/10 09:44:10;;;;;;;11.77;4.32;;;14.40;99.90;;;13.72;77.17;101458.09;5064607;28;20754;-79
2022/11/10 09:47:13;;;;;;;11.40;3.95;;;14.80;99.90;;;14.19;72.51;101455.94;5065188;28;20044;-79
2022/11/10 09:50:02;;;;;;;13.60;4.75;;;15.50;99.90;;;13.35;75.60;101475.91;5068896;28;20124;-80
2022/11/10 09:52:50;;;;;;;13.10;3.97;;;15.00;99.90;;;13.11;77.99;101468.38;5067479;28;20268;-79
2022/11/10 09:55:51;;;;;;;13.65;4.22;;;14.50;99.90;;;12.98;78.53;101470.06;5067727;28;20101;-80
2022/11/10 09:58:42;;;;;;;14.63;4.53;;;14.50;99.90;;;13.02;78.69;101462.28;5065285;28;20106;-82
2022/11/10 10:01:48;;;;;;;11.90;4.68;;;14.50;99.90;;;13.59;73.76;101464.47;5057881;28;20043;-80
2022/11/10 10:05:12;;;;;;;16.63;4.03;;;14.70;99.90;;;13.93;72.11;101471.50;5056281;28;20102;-78
2022/11/10 10:08:10;;;;;;;12.07;3.88;;;15.10;99.90;;;14.23;70.12;101470.06;5064561;28;20109;-81
2022/11/10 10:11:25;;;;;;;11.48;3.90;;;15.30;99.90;;;14.31;70.35;101469.78;5067273;28;20207;-80
2022/11/10 10:14:51;;;;;;;10.05;3.30;;;15.60;99.90;;;15.16;67.04;101472.25;5067903;28;20071;-80
2022/11/10 10:17:51;;;;;;;11.90;3.50;;;16.10;99.90;;;14.88;65.87;101470.84;5066316;28;20074;-78
2022/11/10 10:21:22;;;;;;;12.77;3.95;;;16.30;99.90;;;14.06;71.33;101467.84;5066472;28;20112;-81
2022/11/10 10:24:14;;;;;;;10.25;3.85;;;15.70;99.90;;;15.10;65.54;101468.50;5064276;28;20118;-80
2022/11/10 10:27:03;;;;;;;9.85;3.10;;;15.90;99.90;;;16.75;59.95;101475.00;5038463;28;20059;-80
2022/11/10 10:29:48;;;;;;;9.30;3.20;;;16.90;99.90;;;17.79;53.01;101478.09;5064478;28;20465;-80
2022/11/10 10:32:33;;;;;;;9.68;2.88;;;18.20;99.20;;;17.73;53.18;101490.13;5066150;28;20586;-81
2022/11/10 10:35:18;;;;;;;11.18;3.00;;;18.70;97.20;;;18.29;51.73;101484.03;5067648;28;20048;-79
2022/11/10 10:38:15;;;;;;;9.93;2.63;;;19.20;95.90;;;19.29;48.71;101479.84;5059552;28;20055;-80
2022/11/10 10:41:12;;;;;;;10.93;2.65;;;20.30;93.40;;;19.53;47.38;101496.19;5054744;28;20051;-79
2022/11/10 10:44:00;;;;;;;11.23;2.63;;;20.50;91.90;;;18.40;50.84;101491.41;5055574;28;20103;-81
2022/11/10 10:46:58;;;;;;;11.10;2.65;;;20.10;91.90;;;18.81;49.29;101473.84;5066725;28;20040;-82
2022/11/10 10:49:42;;;;;;;12.32;2.72;;;20.10;91.50;;;18.74;49.47;101471.25;5063338;28;20162;-81
2022/11/10 10:52:26;;;;;;;8.63;2.55;;;20.30;90.90;;;18.59;48.92;101482.91;5064882;28;20125;-80
2022/11/10 10:55:12;;;;;;;12.60;2.85;;;20.30;90.40;;;19.63;47.14;101478.88;5063186;28;20507;-78
2022/11/10 10:58:18;;;;;;;10.68;2.55;;;20.70;90.00;;;20.01;45.63;101487.38;5056914;28;20048;-80
2022/11/10 11:01:14;;;;;;;12.43;2.47;;;21.40;87.20;;;17.86;51.85;101491.78;5066367;28;20228;-79
2022/11/10 11:04:03;;;;;;;9.25;2.13;;;20.10;90.30;;;17.36;53.25;101479.41;5061881;28;20146;-78
2022/11/10 11:07:00;;;;;;;12.98;2.70;;;19.40;91.50;;;16.30;57.30;101483.75;5061565;28;20628;-79
2022/11/10 11:09:45;;;;;;;8.90;2.80;;;18.20;93.50;;;17.07;55.19;101501.38;5063105;28;20106;-78
2022/11/10 11:12:32;;;;;;;9.60;2.45;;;18.30;94.10;;;18.92;49.06;101519.91;5061997;28;20044;-83
2022/11/10 11:15:29;;;;;;;11.23;2.10;;;19.70;91.60;;;18.77;47.94;101520.50;5060213;28;20527;-79
2022/11/10 11:18:17;;;;;;;9.23;1.98;;;20.20;88.70;;;20.17;45.61;101510.53;5057750;28;20405;-79
2022/11/10 11:21:36;;;;;;;10.47;2.53;;;21.00;88.20;;;19.77;44.68;101499.56;5056584;28;20562;-79
2022/11/10 11:24:36;;;;;;;8.35;2.30;;;21.30;84.60;;;21.21;42.54;101509.47;5057532;28;20106;-80
2022/11/10 11:27:38;;;;;;;8.90;1.98;;;22.30;82.70;;;20.43;43.29;101517.19;5057905;28;20040;-80
2022/11/10 11:30:50;;;;;;;10.32;2.47;;;22.70;78.50;;;19.81;43.83;101536.69;5062761;28;20054;-78
2022/11/10 11:34:04;;;;;;;9.40;2.22;;;21.80;79.30;;;20.16;43.85;101523.56;5065411;28;20618;-75
2022/11/10 11:37:14;;;;;;;12.38;2.25;;;21.60;80.90;;;20.15;43.44;101538.47;5048803;28;20273;-80
2022/11/10 11:40:37;;;;;;;7.93;1.83;;;21.60;80.00;;;19.28;45.79;101525.19;5056131;28;20063;-81
2022/11/10 11:43:32;;;;;;;12.02;2.33;;;21.00;81.30;;;21.02;42.72;101521.03;5051997;28;20040;-80
2022/11/10 11:46:29;;;;;;;7.13;1.90;;;;;;;21.37;42.15;101527.06;5057596;28;20095;-79
2022/11/10 11:49:29;;;;;;;6.45;1.80;;;;;;;22.67;38.06;101537.50;5057284;28;20495;-77
2022/11/10 11:52:33;;;;;;;8.63;1.90;;;;;;;23.35;36.37;101531.91;5053062;28;20103;-77